Time;durP1;ratioP1;P1;durP2;ratioP2;P2;SDS_P1;SDS_P2;PMS_P1;PMS_P2;Temp;Humidity;BMP_temperature;BMP_pressure;BME280_temperature;BME280_humidity;BME280_pressure;Samples;Min_cycle;Max_cycle;Signal;HPM_P1;HPM_P2
2023/06/15 00:00:06;;;;;;;;;;;22.30;66.80;22.20;99278.00;;;;348661;27;86096;-91
2023/06/15 00:00:18;;;;;;;;;;;22.20;66.70;22.20;99276.00;;;;345847;28;83404;-91
2023/06/15 00:00:30;;;;;;;;;;;22.20;66.70;22.30;99273.00;;;;348703;27;87413;-91
2023/06/15 00:00:42;;;;;;;;;;;22.20;66.70;22.30;99274.00;;;;347411;28;82522;-91
2023/06/15 00:00:54;;;;;;;;;;;22.20;67.00;22.30;99263.00;;;;348481;27;86490;-91
2023/06/15 00:01:06;;;;;;;;;;;22.20;66.80;22.30;99271.00;;;;348670;27;83468;-92
2023/06/15 00:01:18;;;;;;;;;;;22.20;66.40;22.30;99269.00;;;;348562;27;87035;-91
2023/06/15 00:01:30;;;;;;;;;;;22.20;66.70;22.30;99269.00;;;;345891;28;83409;-91
2023/06/15 00:01:42;;;;;;;;;;;22.20;66.90;22.20;99268.00;;;;348586;27;86473;-91
2023/06/15 00:01:54;;;;;;;;;;;22.20;67.10;22.30;99271.00;;;;347330;28;82538;-92
2023/06/15 00:02:06;;;;;;;;;;;22.20;66.90;22.40;99272.00;;;;346072;28;83862;-91
2023/06/15 00:02:18;;;;;;;;;;;22.20;66.70;22.30;99267.00;;;;345860;28;82536;-91
2023/06/15 00:02:29;;;;;;;;;;;22.20;66.60;22.30;99272.00;;;;344589;28;86391;-92
2023/06/15 00:02:42;;;;;;;;;;;22.20;66.40;22.30;99276.00;;;;347256;28;82471;-92
2023/06/15 00:02:53;;;;;;;;;;;22.20;66.60;22.30;99277.00;;;;345795;28;87878;-91
2023/06/15 00:03:07;;;;;;;;;;;22.20;66.60;22.30;99274.00;;;;346030;28;82599;-91
2023/06/15 00:03:19;;;;;;;;;;;22.20;66.70;22.30;99275.00;;;;345807;28;87660;-90
2023/06/15 00:03:31;;;;;;;;;;;22.20;66.60;22.30;99275.00;;;;346290;28;82338;-92
2023/06/15 00:03:44;;;;;;;;;;;22.20;66.80;22.20;99277.00;;;;345810;28;87647;-91
2023/06/15 00:03:56;;;;;;;;;;;22.20;67.40;22.20;99280.00;;;;348628;27;82519;-91
2023/06/15 00:04:08;;;;;;;;;;;22.20;67.60;22.20;99279.00;;;;348638;27;86265;-91
2023/06/15 00:04:20;;;;;;;;;;;22.20;67.80;22.20;99274.00;;;;348792;27;83581;-92
2023/06/15 00:04:32;;;;;;;;;;;22.20;67.50;22.30;99271.00;;;;345793;28;87307;-92
2023/06/15 00:04:44;;;;;;;;;;;22.20;66.90;22.20;99273.00;;;;347336;28;82563;-91
2023/06/15 00:04:56;;;;;;;;;;;22.20;67.20;22.20;99272.00;;;;345849;28;87582;-92
2023/06/15 00:05:08;;;;;;;;;;;22.20;66.80;22.30;99268.00;;;;344468;28;83401;-91
2023/06/15 00:05:20;;;;;;;;;;;22.20;66.80;22.40;99271.00;;;;347199;28;87391;-91
2023/06/15 00:05:32;;;;;;;;;;;22.20;66.80;22.40;99273.00;;;;347303;28;83361;-92
2023/06/15 00:05:44;;;;;;;;;;;22.20;66.80;22.50;99270.00;;;;345787;28;87699;-91
2023/06/15 00:05:56;;;;;;;;;;;22.20;66.80;22.40;99270.00;;;;345724;28;83372;-92
2023/06/15 00:06:08;;;;;;;;;;;22.20;67.00;22.30;99269.00;;;;347227;28;86195;-92
2023/06/15 00:06:21;;;;;;;;;;;22.20;67.00;22.30;99279.00;;;;347161;27;83434;-91
2023/06/15 00:06:33;;;;;;;;;;;22.20;67.60;22.30;99275.00;;;;345773;28;87677;-91
2023/06/15 00:06:45;;;;;;;;;;;22.20;67.40;22.30;99271.00;;;;347267;28;82481;-91
2023/06/15 00:06:57;;;;;;;;;;;22.20;67.20;22.30;99274.00;;;;348509;27;86387;-91
2023/06/15 00:07:09;;;;;;;;;;;22.20;67.00;22.40;99276.00;;;;347249;28;82559;-91
2023/06/15 00:07:21;;;;;;;;;;;22.20;67.00;22.40;99281.00;;;;345708;28;87243;-91
2023/06/15 00:07:33;;;;;;;;;;;22.20;67.00;22.50;99272.00;;;;345842;28;83364;-92
2023/06/15 00:07:45;;;;;;;;;;;22.20;67.20;22.50;99279.00;;;;347184;28;86077;-91
2023/06/15 00:07:57;;;;;;;;;;;22.20;67.80;22.50;99277.00;;;;345814;28;83342;-91
2023/06/15 00:08:09;;;;;;;;;;;22.20;67.10;22.30;99275.00;;;;345827;28;87444;-91
2023/06/15 00:08:21;;;;;;;;;;;22.20;67.40;22.30;99272.00;;;;345808;28;83342;-91
2023/06/15 00:08:32;;;;;;;;;;;22.20;67.50;22.40;99273.00;;;;348541;27;87663;-91
2023/06/15 00:08:44;;;;;;;;;;;22.20;67.20;22.30;99276.00;;;;347268;28;83366;-92
2023/06/15 00:08:56;;;;;;;;;;;22.20;67.50;22.20;99271.00;;;;348533;27;87699;-91
2023/06/15 00:09:08;;;;;;;;;;;22.20;67.50;22.20;99277.00;;;;348593;27;83407;-91
2023/06/15 00:09:21;;;;;;;;;;;22.20;67.50;22.20;99271.00;;;;345823;28;86184;-92
2023/06/15 00:09:33;;;;;;;;;;;22.20;67.40;22.20;99270.00;;;;347172;28;83947;-91
2023/06/15 00:09:45;;;;;;;;;;;22.20;67.60;22.20;99268.00;;;;347181;28;86396;-91
2023/06/15 00:09:57;;;;;;;;;;;22.20;67.50;22.20;99273.00;;;;347156;28;83439;-91
2023/06/15 00:10:09;;;;;;;;;;;22.20;67.30;22.10;99276.00;;;;347203;28;87479;-91
2023/06/15 00:10:21;;;;;;;;;;;22.10;67.80;22.20;99270.00;;;;347252;28;82499;-91
2023/06/15 00:10:33;;;;;;;;;;;22.10;67.70;22.30;99273.00;;;;347147;28;87034;-91
2023/06/15 00:10:45;;;;;;;;;;;22.10;67.40;22.30;99272.00;;;;344510;28;83486;-91
2023/06/15 00:10:56;;;;;;;;;;;22.10;67.40;22.40;99268.00;;;;345700;28;86681;-91
2023/06/15 00:11:08;;;;;;;;;;;22.10;67.50;22.40;99272.00;;;;347212;28;82510;-91
2023/06/15 00:11:20;;;;;;;;;;;22.10;67.30;22.30;99275.00;;;;348648;27;86861;-91
2023/06/15 00:11:32;;;;;;;;;;;22.10;67.20;22.30;99274.00;;;;348635;27;83422;-91
2023/06/15 00:11:44;;;;;;;;;;;22.10;67.50;22.30;99277.00;;;;347137;28;87086;-91
2023/06/15 00:11:56;;;;;;;;;;;22.10;67.70;22.20;99275.00;;;;348598;27;82512;-91
2023/06/15 00:12:09;;;;;;;;;;;22.10;67.80;22.20;99275.00;;;;347448;28;86410;-91
2023/06/15 00:12:23;;;;;;;;;;;22.10;67.60;22.20;99274.00;;;;348793;27;82500;-92
2023/06/15 00:12:35;;;;;;;;;;;22.10;67.50;22.30;99270.00;;;;347239;28;88060;-91
2023/06/15 00:12:47;;;;;;;;;;;22.10;67.30;22.30;99272.00;;;;350249;27;83446;-91
2023/06/15 00:12:59;;;;;;;;;;;22.10;67.60;22.20;99274.00;;;;347454;28;86384;-91
2023/06/15 00:13:11;;;;;;;;;;;22.10;67.90;22.20;99267.00;;;;347162;28;82553;-91
2023/06/15 00:13:22;;;;;;;;;;;22.10;67.90;22.10;99277.00;;;;347246;28;85152;-92
2023/06/15 00:13:34;;;;;;;;;;;22.10;67.90;22.10;99275.00;;;;344384;28;83483;-92
2023/06/15 00:13:46;;;;;;;;;;;22.10;67.90;22.20;99272.00;;;;347146;28;85335;-92
2023/06/15 00:13:58;;;;;;;;;;;22.10;68.00;22.20;99283.00;;;;344588;28;83361;-91
2023/06/15 00:14:10;;;;;;;;;;;22.10;68.00;22.30;99279.00;;;;345826;28;87223;-91
2023/06/15 00:14:22;;;;;;;;;;;22.10;67.90;22.30;99279.00;;;;345947;28;83481;-90
2023/06/15 00:14:34;;;;;;;;;;;22.10;67.70;22.20;99270.00;;;;348708;27;87559;-91
2023/06/15 00:14:45;;;;;;;;;;;22.10;67.80;22.20;99279.00;;;;347357;28;83361;-91
2023/06/15 00:14:57;;;;;;;;;;;22.10;68.00;22.20;99273.00;;;;347328;28;83832;-91
2023/06/15 00:15:10;;;;;;;;;;;22.10;67.80;22.30;99274.00;;;;347430;28;83337;-91
2023/06/15 00:15:22;;;;;;;;;;;22.10;67.60;22.20;99278.00;;;;345851;28;87414;-91
2023/06/15 00:15:33;;;;;;;;;;;22.10;67.90;22.10;99275.00;;;;347222;28;82599;-92
2023/06/15 00:15:45;;;;;;;;;;;22.10;68.20;22.20;99279.00;;;;348581;27;86507;-91
2023/06/15 00:15:57;;;;;;;;;;;22.10;68.30;22.30;99274.00;;;;350015;27;83475;-91
2023/06/15 00:16:09;;;;;;;;;;;22.10;67.90;22.20;99276.00;;;;347239;28;87131;-91
2023/06/15 00:16:21;;;;;;;;;;;22.10;67.90;22.20;99271.00;;;;348542;27;83558;-91
2023/06/15 00:16:33;;;;;;;;;;;22.10;67.90;22.30;99273.00;;;;347095;28;86134;-91
2023/06/15 00:16:45;;;;;;;;;;;22.10;67.90;22.20;99281.00;;;;347298;28;82458;-92
2023/06/15 00:16:57;;;;;;;;;;;22.10;68.10;22.20;99274.00;;;;346841;28;85620;-91
2023/06/15 00:17:11;;;;;;;;;;;22.10;68.00;22.20;99278.00;;;;348581;27;82650;-91
2023/06/15 00:17:24;;;;;;;;;;;22.10;68.10;22.20;99276.00;;;;347233;28;86095;-91
2023/06/15 00:17:37;;;;;;;;;;;22.10;67.70;22.20;99283.00;;;;348561;27;82665;-91
2023/06/15 00:17:50;;;;;;;;;;;22.10;67.80;22.20;99279.00;;;;347253;28;86970;-91
2023/06/15 00:18:03;;;;;;;;;;;22.10;68.00;22.10;99279.00;;;;347364;28;82615;-91
2023/06/15 00:18:14;;;;;;;;;;;22.10;68.10;22.30;99277.00;;;;349848;27;86122;-91
2023/06/15 00:18:26;;;;;;;;;;;22.10;67.80;22.30;99277.00;;;;346051;28;82464;-92
2023/06/15 00:18:38;;;;;;;;;;;22.10;67.90;22.30;99279.00;;;;347185;28;86124;-90
2023/06/15 00:18:54;;;;;;;;;;;22.10;67.70;22.30;99272.00;;;;348741;27;83376;-91
2023/06/15 00:19:07;;;;;;;;;;;22.10;67.60;22.10;99275.00;;;;348679;27;86885;-91
2023/06/15 00:19:19;;;;;;;;;;;22.10;67.80;22.30;99276.00;;;;345901;28;83493;-91
2023/06/15 00:19:31;;;;;;;;;;;22.10;67.80;22.30;99279.00;;;;348568;27;87155;-92
2023/06/15 00:19:44;;;;;;;;;;;22.10;67.80;22.30;99274.00;;;;347200;28;83515;-91
2023/06/15 00:20:04;;;;;;;;;;;22.10;67.70;22.30;99277.00;;;;347156;28;86280;-91
2023/06/15 00:20:16;;;;;;;;;;;22.10;67.60;22.30;99284.00;;;;348528;27;82344;-92
2023/06/15 00:20:28;;;;;;;;;;;22.10;68.60;22.20;99275.00;;;;344483;28;87384;-92
2023/06/15 00:20:40;;;;;;;;;;;22.10;68.30;22.20;99275.00;;;;345987;28;82613;-91
2023/06/15 00:20:55;;;;;;;;;;;22.10;68.30;22.20;99283.00;;;;348501;27;86632;-92
2023/06/15 00:21:08;;;;;;;;;;;22.10;68.10;22.30;99273.00;;;;347268;28;83485;-91
2023/06/15 00:21:22;;;;;;;;;;;22.10;68.10;22.20;99281.00;;;;348564;27;86156;-91
2023/06/15 00:21:40;;;;;;;;;;;22.10;68.10;22.20;99278.00;;;;349856;27;83391;-91
2023/06/15 00:21:53;;;;;;;;;;;22.10;67.70;22.20;99276.00;;;;347096;28;87676;-92
2023/06/15 00:22:06;;;;;;;;;;;22.10;68.20;22.20;99282.00;;;;348803;27;83441;-91
2023/06/15 00:22:17;;;;;;;;;;;22.10;68.50;22.20;99282.00;;;;345658;28;86924;-91
2023/06/15 00:22:29;;;;;;;;;;;22.10;68.20;22.20;99284.00;;;;348548;27;82463;-91
2023/06/15 00:22:45;;;;;;;;;;;22.10;68.70;22.10;99276.00;;;;345805;28;87473;-91
2023/06/15 00:22:58;;;;;;;;;;;22.10;68.50;22.10;99283.00;;;;347286;28;83520;-91
2023/06/15 00:23:10;;;;;;;;;;;22.00;68.20;22.10;99285.00;;;;348477;27;87910;-91
2023/06/15 00:23:26;;;;;;;;;;;22.00;68.30;22.10;99280.00;;;;347330;28;83329;-92
2023/06/15 00:23:40;;;;;;;;;;;22.10;68.30;22.10;99274.00;;;;349664;27;85442;-91
2023/06/15 00:23:51;;;;;;;;;;;22.00;68.10;22.10;99283.00;;;;347178;28;83354;-91
2023/06/15 00:24:04;;;;;;;;;;;22.00;67.80;22.10;99286.00;;;;347060;28;85564;-91
2023/06/15 00:24:16;;;;;;;;;;;22.00;68.10;22.10;99278.00;;;;344464;28;83438;-92
2023/06/15 00:24:28;;;;;;;;;;;22.00;68.10;22.20;99282.00;;;;347025;28;87858;-92
2023/06/15 00:24:43;;;;;;;;;;;22.00;68.30;22.30;99285.00;;;;345834;28;82495;-91
2023/06/15 00:24:55;;;;;;;;;;;22.00;68.20;22.20;99279.00;;;;344295;28;87427;-92
2023/06/15 00:25:08;;;;;;;;;;;22.00;68.10;22.20;99278.00;;;;344487;28;82547;-92
2023/06/15 00:25:19;;;;;;;;;;;22.00;68.10;22.10;99282.00;;;;344357;28;86077;-91
2023/06/15 00:25:33;;;;;;;;;;;22.00;68.30;22.10;99278.00;;;;345811;28;82328;-92
2023/06/15 00:25:45;;;;;;;;;;;22.00;68.80;22.00;99275.00;;;;347066;28;86869;-92
2023/06/15 00:25:57;;;;;;;;;;;22.00;69.00;22.10;99277.00;;;;347227;28;83443;-91
2023/06/15 00:26:08;;;;;;;;;;;22.00;68.70;22.20;99280.00;;;;348474;27;86212;-91
2023/06/15 00:26:20;;;;;;;;;;;22.00;68.60;22.20;99274.00;;;;347273;28;83350;-92
2023/06/15 00:26:32;;;;;;;;;;;22.00;68.70;22.20;99284.00;;;;347153;28;86719;-91
2023/06/15 00:26:44;;;;;;;;;;;22.00;68.40;22.10;99284.00;;;;347190;28;83429;-91
2023/06/15 00:26:56;;;;;;;;;;;22.00;68.60;22.00;99284.00;;;;346990;28;87042;-92
2023/06/15 00:27:10;;;;;;;;;;;22.00;69.10;21.90;99282.00;;;;348652;27;83501;-91
2023/06/15 00:27:22;;;;;;;;;;;22.00;68.90;22.00;99282.00;;;;345701;28;87602;-91
2023/06/15 00:27:35;;;;;;;;;;;22.00;68.70;22.10;99286.00;;;;347166;28;82464;-92
2023/06/15 00:27:46;;;;;;;;;;;22.00;68.80;22.00;99281.00;;;;347051;28;86804;-91
2023/06/15 00:27:58;;;;;;;;;;;21.90;68.80;21.90;99278.00;;;;347280;28;82423;-91
2023/06/15 00:28:10;;;;;;;;;;;22.00;68.70;21.90;99282.00;;;;347140;28;86329;-91
2023/06/15 00:28:22;;;;;;;;;;;22.00;68.80;21.90;99287.00;;;;344361;28;83499;-91
2023/06/15 00:28:34;;;;;;;;;;;21.90;68.80;21.90;99283.00;;;;347175;28;86783;-91
2023/06/15 00:28:46;;;;;;;;;;;22.00;69.10;21.90;99279.00;;;;348772;27;83425;-91
2023/06/15 00:28:58;;;;;;;;;;;21.90;68.80;21.80;99280.00;;;;348467;27;87817;-91
2023/06/15 00:29:10;;;;;;;;;;;21.90;68.80;21.90;99283.00;;;;346015;28;83374;-91
2023/06/15 00:29:21;;;;;;;;;;;21.90;68.70;21.80;99281.00;;;;345982;28;86242;-91
2023/06/15 00:29:33;;;;;;;;;;;21.90;68.60;21.90;99281.00;;;;345978;28;83419;-92
2023/06/15 00:29:45;;;;;;;;;;;21.90;68.80;22.00;99282.00;;;;347139;28;86145;-92
2023/06/15 00:29:57;;;;;;;;;;;21.90;68.60;21.90;99282.00;;;;345832;28;83418;-91
2023/06/15 00:30:10;;;;;;;;;;;21.90;68.80;21.90;99284.00;;;;345774;28;87679;-91
2023/06/15 00:30:22;;;;;;;;;;;21.80;68.70;21.90;99278.00;;;;345764;28;83650;-91
2023/06/15 00:30:33;;;;;;;;;;;21.80;68.90;21.90;99280.00;;;;346894;28;85469;-91
2023/06/15 00:30:45;;;;;;;;;;;21.90;68.90;21.80;99285.00;;;;347229;28;83415;-91
2023/06/15 00:30:57;;;;;;;;;;;21.90;68.90;21.80;99286.00;;;;345615;28;86140;-91
2023/06/15 00:31:09;;;;;;;;;;;21.90;69.10;22.00;99282.00;;;;345866;28;82475;-91
2023/06/15 00:31:22;;;;;;;;;;;21.90;68.90;21.90;99283.00;;;;347143;28;87376;-90
2023/06/15 00:31:35;;;;;;;;;;;21.80;68.90;21.80;99284.00;;;;347157;28;83536;-91
2023/06/15 00:31:47;;;;;;;;;;;21.80;68.90;21.90;99282.00;;;;345731;28;86346;-91
2023/06/15 00:31:59;;;;;;;;;;;21.80;69.00;22.00;99287.00;;;;348613;27;83646;-91
2023/06/15 00:32:10;;;;;;;;;;;21.80;68.80;22.00;99278.00;;;;345741;28;87802;-91
2023/06/15 00:32:22;;;;;;;;;;;21.80;69.00;22.00;99280.00;;;;348538;27;83470;-92
2023/06/15 00:32:34;;;;;;;;;;;21.80;69.00;22.10;99284.00;;;;348432;27;87655;-92
2023/06/15 00:32:46;;;;;;;;;;;21.80;68.70;22.10;99283.00;;;;348687;27;83152;-91
2023/06/15 00:32:58;;;;;;;;;;;21.90;68.80;22.10;99282.00;;;;347088;28;87540;-91
2023/06/15 00:33:11;;;;;;;;;;;21.80;68.70;22.10;99286.00;;;;347328;28;83321;-91
2023/06/15 00:33:23;;;;;;;;;;;21.90;68.60;21.90;99277.00;;;;348249;27;85133;-91
2023/06/15 00:33:34;;;;;;;;;;;21.90;68.90;22.00;99276.00;;;;348570;27;83413;-92
2023/06/15 00:33:46;;;;;;;;;;;21.80;69.00;22.00;99274.00;;;;348549;27;87301;-91
2023/06/15 00:33:58;;;;;;;;;;;21.80;69.10;21.90;99289.00;;;;345722;28;83056;-91
2023/06/15 00:34:10;;;;;;;;;;;21.80;69.00;21.90;99279.00;;;;348501;27;85068;-91
2023/06/15 00:34:22;;;;;;;;;;;21.80;69.40;21.90;99283.00;;;;347163;28;83479;-91
2023/06/15 00:34:34;;;;;;;;;;;21.80;69.20;21.90;99285.00;;;;346976;28;87334;-91
2023/06/15 00:34:46;;;;;;;;;;;21.80;69.00;21.90;99280.00;;;;344609;28;82596;-92
2023/06/15 00:34:57;;;;;;;;;;;21.80;69.20;21.90;99278.00;;;;347042;27;83951;-92
2023/06/15 00:35:09;;;;;;;;;;;21.80;69.10;21.80;99275.00;;;;345797;28;83370;-91
2023/06/15 00:35:21;;;;;;;;;;;21.90;69.00;21.90;99286.00;;;;348659;27;87575;-92
2023/06/15 00:35:33;;;;;;;;;;;21.80;69.20;22.00;99285.00;;;;347275;28;82564;-89
2023/06/15 00:35:45;;;;;;;;;;;21.80;69.20;22.10;99286.00;;;;347109;28;87783;-91
2023/06/15 00:36:00;;;;;;;;;;;21.80;69.10;21.90;99281.00;;;;345978;28;82493;-91
2023/06/15 00:36:12;;;;;;;;;;;21.80;69.10;21.90;99284.00;;;;347174;28;86050;-92
2023/06/15 00:36:24;;;;;;;;;;;21.90;69.00;22.00;99283.00;;;;346116;28;82460;-91
2023/06/15 00:36:36;;;;;;;;;;;21.80;69.00;22.10;99285.00;;;;345804;28;86753;-91
2023/06/15 00:36:48;;;;;;;;;;;21.80;68.90;22.00;99285.00;;;;347185;28;83388;-91
2023/06/15 00:37:00;;;;;;;;;;;21.80;69.00;22.00;99285.00;;;;347095;28;86205;-91
2023/06/15 00:37:11;;;;;;;;;;;21.80;68.80;22.00;99289.00;;;;348677;27;82494;-91
2023/06/15 00:37:23;;;;;;;;;;;21.80;68.70;22.00;99285.00;;;;345858;28;87642;-91
2023/06/15 00:37:35;;;;;;;;;;;21.80;69.00;22.00;99286.00;;;;345717;28;83466;-91
2023/06/15 00:37:47;;;;;;;;;;;21.80;69.00;21.90;99285.00;;;;346027;28;86668;-91
2023/06/15 00:37:59;;;;;;;;;;;21.80;69.20;21.80;99273.00;;;;345881;28;82611;-92
2023/06/15 00:38:11;;;;;;;;;;;21.80;69.30;21.80;99288.00;;;;347252;28;86488;-92
2023/06/15 00:38:23;;;;;;;;;;;21.80;69.30;21.90;99279.00;;;;347206;28;82786;-90
2023/06/15 00:38:35;;;;;;;;;;;21.80;69.00;22.00;99278.00;;;;344434;28;87138;-91
2023/06/15 00:38:47;;;;;;;;;;;21.80;68.90;22.10;99285.00;;;;347284;28;82466;-91
2023/06/15 00:38:59;;;;;;;;;;;21.80;69.20;22.00;99288.00;;;;348548;27;84634;-91
2023/06/15 00:39:11;;;;;;;;;;;21.80;69.20;22.10;99285.00;;;;347297;28;82498;-91
2023/06/15 00:39:23;;;;;;;;;;;21.80;69.10;22.00;99281.00;;;;345816;28;86774;-91
2023/06/15 00:39:35;;;;;;;;;;;21.80;69.20;22.00;99280.00;;;;347255;28;82428;-91
2023/06/15 00:39:47;;;;;;;;;;;21.80;69.70;21.90;99282.00;;;;348494;27;87809;-91
2023/06/15 00:39:59;;;;;;;;;;;21.80;69.50;21.90;99277.00;;;;347159;28;83439;-92
2023/06/15 00:40:11;;;;;;;;;;;21.80;69.50;21.90;99285.00;;;;347326;28;87613;-92
2023/06/15 00:40:23;;;;;;;;;;;21.80;69.30;21.90;99285.00;;;;348706;27;82431;-91
2023/06/15 00:40:37;;;;;;;;;;;21.80;69.30;21.90;99282.00;;;;347392;28;87365;-91
2023/06/15 00:40:49;;;;;;;;;;;21.80;69.00;21.80;99278.00;;;;347265;28;82323;-90
2023/06/15 00:41:01;;;;;;;;;;;21.80;70.30;21.80;99284.00;;;;348469;27;87623;-91
2023/06/15 00:41:13;;;;;;;;;;;21.80;69.80;21.70;99284.00;;;;348678;27;83362;-91
2023/06/15 00:41:25;;;;;;;;;;;21.80;70.00;21.70;99286.00;;;;344671;28;86086;-92
2023/06/15 00:41:41;;;;;;;;;;;21.80;69.90;21.70;99288.00;;;;346047;28;83450;-91
2023/06/15 00:41:53;;;;;;;;;;;21.70;69.80;21.70;99294.00;;;;347345;28;86439;-91
2023/06/15 00:42:05;;;;;;;;;;;21.80;70.50;21.80;99288.00;;;;344777;28;83910;-92
2023/06/15 00:42:17;;;;;;;;;;;21.70;69.90;21.80;99290.00;;;;345866;28;86105;-91
2023/06/15 00:42:31;;;;;;;;;;;21.70;69.70;21.80;99285.00;;;;347432;28;83350;-91
2023/06/15 00:42:45;;;;;;;;;;;21.70;69.40;21.80;99287.00;;;;347157;28;86905;-92
2023/06/15 00:42:57;;;;;;;;;;;21.70;69.80;21.80;99279.00;;;;347164;28;83465;-91
2023/06/15 00:43:08;;;;;;;;;;;21.70;69.70;21.80;99281.00;;;;347059;28;87175;-92
2023/06/15 00:43:20;;;;;;;;;;;21.70;69.50;21.70;99289.00;;;;348598;27;83416;-91
2023/06/15 00:43:32;;;;;;;;;;;21.70;69.70;21.60;99286.00;;;;348509;27;86260;-91
2023/06/15 00:43:44;;;;;;;;;;;21.70;70.20;21.60;99281.00;;;;347206;28;83407;-91
2023/06/15 00:43:56;;;;;;;;;;;21.70;70.50;21.60;99287.00;;;;349916;27;87330;-91
2023/06/15 00:44:08;;;;;;;;;;;21.70;70.30;21.70;99283.00;;;;347115;28;82579;-90
2023/06/15 00:44:20;;;;;;;;;;;21.70;70.50;21.70;99278.00;;;;346969;28;87413;-91
2023/06/15 00:44:32;;;;;;;;;;;21.70;70.10;21.80;99283.00;;;;347186;27;82510;-91
2023/06/15 00:44:43;;;;;;;;;;;21.70;69.80;21.80;99283.00;;;;347080;28;87152;-91
2023/06/15 00:44:56;;;;;;;;;;;21.70;69.70;21.80;99286.00;;;;348502;27;82510;-91
2023/06/15 00:45:08;;;;;;;;;;;21.70;69.70;21.80;99284.00;;;;345682;28;87558;-91
2023/06/15 00:45:20;;;;;;;;;;;21.70;69.80;21.80;99282.00;;;;347416;28;83500;-91
2023/06/15 00:45:31;;;;;;;;;;;21.70;69.80;21.80;99284.00;;;;347209;28;86208;-92
2023/06/15 00:45:44;;;;;;;;;;;21.70;70.00;21.80;99285.00;;;;347214;28;83455;-92
2023/06/15 00:45:56;;;;;;;;;;;21.70;69.80;21.80;99288.00;;;;346896;28;86193;-91
2023/06/15 00:46:08;;;;;;;;;;;21.70;69.70;21.80;99285.00;;;;347330;28;82543;-92
2023/06/15 00:46:20;;;;;;;;;;;21.70;69.70;21.80;99287.00;;;;347011;28;86528;-92
2023/06/15 00:46:32;;;;;;;;;;;21.70;69.60;21.80;99289.00;;;;345748;28;83434;-91
2023/06/15 00:46:44;;;;;;;;;;;21.70;69.60;21.80;99278.00;;;;348475;27;86950;-92
2023/06/15 00:46:56;;;;;;;;;;;21.70;69.50;21.80;99286.00;;;;345770;28;83347;-91
2023/06/15 00:47:08;;;;;;;;;;;21.70;69.70;21.80;99286.00;;;;345655;28;87339;-91
2023/06/15 00:47:21;;;;;;;;;;;21.70;69.60;21.80;99288.00;;;;347230;28;83475;-91
2023/06/15 00:47:38;;;;;;;;;;;21.70;69.50;21.90;99286.00;;;;347055;28;87080;-92
2023/06/15 00:47:50;;;;;;;;;;;21.70;69.60;21.80;99280.00;;;;347093;28;83449;-91
2023/06/15 00:48:02;;;;;;;;;;;21.70;70.10;21.80;99287.00;;;;348438;27;86486;-91
2023/06/15 00:48:14;;;;;;;;;;;21.70;70.30;21.60;99292.00;;;;345724;28;83442;-91
2023/06/15 00:48:26;;;;;;;;;;;21.60;70.40;21.70;99286.00;;;;348432;27;86319;-91
2023/06/15 00:48:38;;;;;;;;;;;21.70;70.70;21.80;99283.00;;;;348553;27;82515;-91
2023/06/15 00:48:50;;;;;;;;;;;21.60;70.40;21.80;99285.00;;;;345679;28;87533;-91
2023/06/15 00:49:02;;;;;;;;;;;21.70;70.40;21.80;99286.00;;;;345809;28;82535;-91
2023/06/15 00:49:14;;;;;;;;;;;21.60;70.50;21.80;99281.00;;;;345683;28;86555;-91
2023/06/15 00:49:26;;;;;;;;;;;21.70;70.60;21.80;99281.00;;;;345777;28;82499;-91
2023/06/15 00:49:38;;;;;;;;;;;21.70;70.20;21.80;99291.00;;;;348194;27;86602;-92
2023/06/15 00:49:50;;;;;;;;;;;21.70;70.10;21.80;99286.00;;;;344507;28;83330;-91
2023/06/15 00:50:02;;;;;;;;;;;21.70;70.60;21.60;99290.00;;;;345707;28;87515;-91
2023/06/15 00:50:14;;;;;;;;;;;21.60;70.90;21.50;99280.00;;;;347120;28;83379;-90
2023/06/15 00:50:30;;;;;;;;;;;21.60;71.10;21.60;99289.00;;;;347108;28;84074;-91
2023/06/15 00:50:42;;;;;;;;;;;21.60;71.20;21.80;99290.00;;;;345650;28;83373;-92
2023/06/15 00:50:53;;;;;;;;;;;21.60;70.70;21.50;99285.00;;;;347156;28;85135;-91
2023/06/15 00:51:06;;;;;;;;;;;21.60;71.10;21.50;99288.00;;;;347177;28;83382;-92
2023/06/15 00:51:18;;;;;;;;;;;21.60;71.10;21.60;99287.00;;;;345653;28;87571;-92
2023/06/15 00:51:31;;;;;;;;;;;21.60;70.80;21.60;99289.00;;;;348399;27;82534;-91
2023/06/15 00:51:43;;;;;;;;;;;21.60;70.80;21.70;99289.00;;;;347067;28;87456;-90
2023/06/15 00:51:55;;;;;;;;;;;21.60;70.30;21.60;99285.00;;;;347229;28;83390;-91
2023/06/15 00:52:07;;;;;;;;;;;21.60;70.30;21.60;99285.00;;;;347140;28;87494;-91
2023/06/15 00:52:20;;;;;;;;;;;21.60;70.80;21.60;99287.00;;;;345750;28;83559;-92
2023/06/15 00:52:32;;;;;;;;;;;21.60;70.60;21.50;99292.00;;;;347165;28;86343;-91
2023/06/15 00:52:44;;;;;;;;;;;21.60;71.00;21.50;99293.00;;;;346801;28;83504;-92
2023/06/15 00:52:55;;;;;;;;;;;21.50;71.20;21.50;99285.00;;;;344292;28;86474;-92
2023/06/15 00:53:09;;;;;;;;;;;21.50;71.20;21.50;99289.00;;;;347272;28;83507;-91
2023/06/15 00:53:21;;;;;;;;;;;21.50;71.40;21.50;99288.00;;;;347152;28;87232;-92
2023/06/15 00:53:33;;;;;;;;;;;21.50;71.20;21.50;99289.00;;;;346924;28;82595;-91
2023/06/15 00:53:44;;;;;;;;;;;21.50;71.30;21.40;99287.00;;;;348689;27;87241;-90
2023/06/15 00:53:56;;;;;;;;;;;21.50;71.40;21.50;99291.00;;;;345841;28;83408;-91
2023/06/15 00:54:08;;;;;;;;;;;21.50;71.40;21.60;99289.00;;;;347075;28;87258;-91
2023/06/15 00:54:22;;;;;;;;;;;21.50;71.20;21.50;99282.00;;;;348537;27;83419;-90
2023/06/15 00:54:34;;;;;;;;;;;21.50;71.30;21.40;99293.00;;;;347056;28;86827;-91
2023/06/15 00:54:46;;;;;;;;;;;21.50;71.60;21.50;99289.00;;;;348620;27;83738;-91
2023/06/15 00:54:58;;;;;;;;;;;21.50;71.60;21.40;99293.00;;;;347058;28;85667;-91
2023/06/15 00:55:12;;;;;;;;;;;21.50;71.60;21.50;99292.00;;;;348533;27;83565;-91
2023/06/15 00:55:24;;;;;;;;;;;21.50;71.20;21.50;99291.00;;;;347185;28;86191;-92
2023/06/15 00:55:36;;;;;;;;;;;21.50;71.00;21.60;99295.00;;;;344524;28;82425;-91
2023/06/15 00:55:48;;;;;;;;;;;21.50;71.00;21.70;99300.00;;;;345747;28;86376;-91
2023/06/15 00:56:00;;;;;;;;;;;21.40;71.00;21.70;99289.00;;;;347036;28;83502;-92
2023/06/15 00:56:13;;;;;;;;;;;21.50;71.10;21.70;99293.00;;;;347047;28;87810;-91
2023/06/15 00:56:29;;;;;;;;;;;21.50;71.10;21.60;99293.00;;;;345967;28;83318;-91
2023/06/15 00:56:41;;;;;;;;;;;21.50;71.00;21.50;99289.00;;;;347081;28;86400;-92
2023/06/15 00:56:53;;;;;;;;;;;21.50;71.20;21.60;99287.00;;;;345847;28;83398;-92
2023/06/15 00:57:05;;;;;;;;;;;21.40;71.10;21.70;99291.00;;;;345687;28;87512;-92
2023/06/15 00:57:18;;;;;;;;;;;21.50;71.20;21.70;99291.00;;;;347214;28;82459;-91
2023/06/15 00:57:32;;;;;;;;;;;21.40;71.20;21.70;99287.00;;;;345743;28;86904;-91
2023/06/15 00:57:44;;;;;;;;;;;21.50;71.10;21.60;99296.00;;;;347222;28;82384;-91
2023/06/15 00:57:57;;;;;;;;;;;21.50;71.10;21.50;99293.00;;;;345754;28;87496;-91
2023/06/15 00:58:09;;;;;;;;;;;21.40;71.20;21.50;99291.00;;;;345786;28;83387;-91
2023/06/15 00:58:21;;;;;;;;;;;21.40;71.40;21.60;99292.00;;;;347131;28;87830;-91
2023/06/15 00:58:33;;;;;;;;;;;21.50;71.10;21.50;99288.00;;;;347527;28;82477;-91
2023/06/15 00:58:45;;;;;;;;;;;21.50;71.70;21.50;99292.00;;;;346012;28;87669;-91
2023/06/15 00:58:57;;;;;;;;;;;21.50;71.90;21.50;99294.00;;;;347382;28;83413;-91
2023/06/15 00:59:09;;;;;;;;;;;21.50;71.80;21.50;99299.00;;;;347256;28;86751;-91
2023/06/15 00:59:20;;;;;;;;;;;21.50;71.30;21.60;99292.00;;;;345982;28;83379;-91
2023/06/15 00:59:33;;;;;;;;;;;21.40;70.90;21.60;99299.00;;;;347248;28;86241;-91
2023/06/15 00:59:45;;;;;;;;;;;21.50;70.80;21.60;99292.00;;;;347365;28;83417;-91
2023/06/15 00:59:57;;;;;;;;;;;21.40;71.00;21.60;99297.00;;;;344538;28;84689;-91
2023/06/15 01:00:10;;;;;;;;;;;21.50;71.40;21.50;99292.00;;;;345789;28;82650;-91
2023/06/15 01:00:22;;;;;;;;;;;21.40;71.40;21.40;99293.00;;;;347065;28;86542;-91
2023/06/15 01:00:36;;;;;;;;;;;21.40;72.30;21.50;99293.00;;;;348648;27;83325;-91
2023/06/15 01:00:49;;;;;;;;;;;21.40;71.50;21.50;99290.00;;;;344243;28;87821;-91